sensor_id;sensor_type;location;lat;lon;timestamp;pressure;altitude;pressure_sealevel;temperature;humidity
6514;BME280;3290;47.716;9.070;2023-04-30T00:00:41;97079.50;;;14.74;86.23
6514;BME280;3290;47.716;9.070;2023-04-30T00:03:06;97080.03;;;15.04;85.50
6514;BME280;3290;47.716;9.070;2023-04-30T00:05:32;97084.22;;;15.00;86.62
6514;BME280;3290;47.716;9.070;2023-04-30T00:07:57;97085.47;;;14.97;85.74
6514;BME280;3290;47.716;9.070;2023-04-30T00:10:23;97083.13;;;14.84;86.47
6514;BME280;3290;47.716;9.070;2023-04-30T00:12:48;97083.03;;;14.80;86.79
6514;BME280;3290;47.716;9.070;2023-04-30T00:15:13;97089.53;;;14.88;87.94
6514;BME280;3290;47.716;9.070;2023-04-30T00:17:39;97091.25;;;14.94;87.09
6514;BME280;3290;47.716;9.070;2023-04-30T00:20:05;97075.31;;;15.17;86.53
6514;BME280;3290;47.716;9.070;2023-04-30T00:22:31;97072.22;;;15.09;86.16
6514;BME280;3290;47.716;9.070;2023-04-30T00:24:57;97079.91;;;15.10;85.60
6514;BME280;3290;47.716;9.070;2023-04-30T00:27:23;97078.28;;;15.09;86.92
6514;BME280;3290;47.716;9.070;2023-04-30T00:29:48;97076.53;;;14.98;86.47
6514;BME280;3290;47.716;9.070;2023-04-30T00:32:13;97082.13;;;14.74;87.55
6514;BME280;3290;47.716;9.070;2023-04-30T00:34:39;97069.94;;;14.84;87.45
6514;BME280;3290;47.716;9.070;2023-04-30T00:37:05;97072.38;;;15.02;86.37
6514;BME280;3290;47.716;9.070;2023-04-30T00:39:30;97075.00;;;14.75;87.91
6514;BME280;3290;47.716;9.070;2023-04-30T00:41:55;97063.25;;;14.93;86.06
6514;BME280;3290;47.716;9.070;2023-04-30T00:44:21;97055.78;;;14.63;87.56
6514;BME280;3290;47.716;9.070;2023-04-30T00:46:46;97062.03;;;14.57;88.14
6514;BME280;3290;47.716;9.070;2023-04-30T00:49:11;97052.19;;;14.52;88.62
6514;BME280;3290;47.716;9.070;2023-04-30T00:51:39;97060.63;;;14.66;88.11
6514;BME280;3290;47.716;9.070;2023-04-30T00:54:05;97051.47;;;14.57;88.52
6514;BME280;3290;47.716;9.070;2023-04-30T00:56:31;97048.94;;;14.62;88.33
6514;BME280;3290;47.716;9.070;2023-04-30T00:58:57;97047.41;;;14.38;89.15
6514;BME280;3290;47.716;9.070;2023-04-30T01:01:26;97051.34;;;14.36;90.07
6514;BME280;3290;47.716;9.070;2023-04-30T01:03:55;97046.88;;;14.64;88.67
6514;BME280;3290;47.716;9.070;2023-04-30T01:06:20;97041.34;;;14.38;89.25
6514;BME280;3290;47.716;9.070;2023-04-30T01:08:46;97035.53;;;14.24;89.86
6514;BME280;3290;47.716;9.070;2023-04-30T01:11:31;97039.00;;;14.13;90.44
6514;BME280;3290;47.716;9.070;2023-04-30T01:16:33;97033.06;;;14.06;90.26
6514;BME280;3290;47.716;9.070;2023-04-30T01:19:24;97026.91;;;13.90;91.33
6514;BME280;3290;47.716;9.070;2023-04-30T01:21:53;97028.53;;;14.02;91.32
6514;BME280;3290;47.716;9.070;2023-04-30T01:24:50;97028.72;;;14.00;91.47
6514;BME280;3290;47.716;9.070;2023-04-30T01:30:02;97019.34;;;13.82;92.21
6514;BME280;3290;47.716;9.070;2023-04-30T01:32:28;97024.84;;;13.92;92.44
6514;BME280;3290;47.716;9.070;2023-04-30T01:34:54;97029.66;;;13.95;92.54
6514;BME280;3290;47.716;9.070;2023-04-30T01:40:40;97034.94;;;13.95;93.04
6514;BME280;3290;47.716;9.070;2023-04-30T01:43:19;97037.00;;;14.04;93.21
6514;BME280;3290;47.716;9.070;2023-04-30T01:46:02;97034.13;;;13.83;93.83
6514;BME280;3290;47.716;9.070;2023-04-30T01:51:29;97036.75;;;14.05;92.94
6514;BME280;3290;47.716;9.070;2023-04-30T01:53:57;97041.34;;;13.76;94.61
6514;BME280;3290;47.716;9.070;2023-04-30T01:56:37;97033.56;;;13.81;94.31
6514;BME280;3290;47.716;9.070;2023-04-30T01:59:05;97036.75;;;14.05;93.07
6514;BME280;3290;47.716;9.070;2023-04-30T02:01:32;97040.28;;;13.99;94.20
6514;BME280;3290;47.716;9.070;2023-04-30T02:03:58;97036.88;;;13.76;96.03
6514;BME280;3290;47.716;9.070;2023-04-30T02:06:25;97033.22;;;13.77;95.70
6514;BME280;3290;47.716;9.070;2023-04-30T02:08:53;97036.78;;;13.60;95.95
6514;BME280;3290;47.716;9.070;2023-04-30T02:11:18;97038.94;;;13.74;95.98
6514;BME280;3290;47.716;9.070;2023-04-30T02:13:44;97039.41;;;13.71;95.77
6514;BME280;3290;47.716;9.070;2023-04-30T02:16:09;97043.63;;;13.84;95.89
6514;BME280;3290;47.716;9.070;2023-04-30T02:18:35;97042.03;;;13.83;95.29
6514;BME280;3290;47.716;9.070;2023-04-30T02:21:00;97041.47;;;13.81;95.25
6514;BME280;3290;47.716;9.070;2023-04-30T02:23:25;97035.59;;;13.79;95.68
6514;BME280;3290;47.716;9.070;2023-04-30T02:25:51;97038.38;;;13.61;96.67
6514;BME280;3290;47.716;9.070;2023-04-30T02:28:16;97041.13;;;13.66;96.32
6514;BME280;3290;47.716;9.070;2023-04-30T02:30:41;97035.63;;;13.56;97.15
6514;BME280;3290;47.716;9.070;2023-04-30T02:33:07;97033.22;;;13.66;96.51
6514;BME280;3290;47.716;9.070;2023-04-30T02:35:32;97032.97;;;13.79;95.99
6514;BME280;3290;47.716;9.070;2023-04-30T02:37:57;97039.28;;;13.78;95.86
6514;BME280;3290;47.716;9.070;2023-04-30T02:40:23;97038.00;;;13.80;95.38
6514;BME280;3290;47.716;9.070;2023-04-30T02:42:48;97034.69;;;14.07;94.42
6514;BME280;3290;47.716;9.070;2023-04-30T02:45:13;97032.63;;;13.87;95.01
6514;BME280;3290;47.716;9.070;2023-04-30T02:47:39;97028.03;;;13.94;94.64
6514;BME280;3290;47.716;9.070;2023-04-30T02:50:05;97033.88;;;13.96;95.35
6514;BME280;3290;47.716;9.070;2023-04-30T02:52:30;97028.31;;;13.81;95.06
6514;BME280;3290;47.716;9.070;2023-04-30T02:54:56;97033.34;;;13.71;96.14
6514;BME280;3290;47.716;9.070;2023-04-30T02:57:21;97037.78;;;13.93;94.71
6514;BME280;3290;47.716;9.070;2023-04-30T02:59:46;97026.09;;;13.89;95.52
6514;BME280;3290;47.716;9.070;2023-04-30T03:02:12;97032.63;;;13.87;95.69
6514;BME280;3290;47.716;9.070;2023-04-30T03:04:37;97030.91;;;13.92;94.79
6514;BME280;3290;47.716;9.070;2023-04-30T03:07:03;97036.09;;;13.76;96.62
6514;BME280;3290;47.716;9.070;2023-04-30T03:09:29;97039.53;;;13.54;97.86
6514;BME280;3290;47.716;9.070;2023-04-30T03:11:55;97044.22;;;13.52;98.11
6514;BME280;3290;47.716;9.070;2023-04-30T03:14:20;97036.31;;;13.40;99.79
6514;BME280;3290;47.716;9.070;2023-04-30T03:16:46;97033.03;;;13.33;100.00
6514;BME280;3290;47.716;9.070;2023-04-30T03:19:11;97039.31;;;13.32;100.00
6514;BME280;3290;47.716;9.070;2023-04-30T03:21:36;97044.56;;;13.32;100.00
6514;BME280;3290;47.716;9.070;2023-04-30T03:24:02;97036.56;;;13.27;100.00
6514;BME280;3290;47.716;9.070;2023-04-30T03:26:27;97044.19;;;13.18;100.00
6514;BME280;3290;47.716;9.070;2023-04-30T03:28:53;97037.47;;;13.21;100.00
6514;BME280;3290;47.716;9.070;2023-04-30T03:31:19;97042.03;;;13.26;100.00
6514;BME280;3290;47.716;9.070;2023-04-30T03:33:45;97044.22;;;13.29;100.00
6514;BME280;3290;47.716;9.070;2023-04-30T03:36:10;97033.47;;;13.53;100.00
6514;BME280;3290;47.716;9.070;2023-04-30T03:38:39;97029.25;;;13.41;100.00
6514;BME280;3290;47.716;9.070;2023-04-30T03:41:05;97027.53;;;13.46;100.00
6514;BME280;3290;47.716;9.070;2023-04-30T03:43:31;97028.78;;;13.32;100.00
6514;BME280;3290;47.716;9.070;2023-04-30T03:45:56;97028.22;;;13.30;100.00
6514;BME280;3290;47.716;9.070;2023-04-30T03:48:22;97026.72;;;13.23;100.00
6514;BME280;3290;47.716;9.070;2023-04-30T03:50:47;97028.22;;;13.30;100.00
6514;BME280;3290;47.716;9.070;2023-04-30T03:53:12;97029.81;;;13.20;100.00
6514;BME280;3290;47.716;9.070;2023-04-30T03:55:38;97029.34;;;13.12;100.00
6514;BME280;3290;47.716;9.070;2023-04-30T03:58:03;97025.13;;;13.11;100.00
6514;BME280;3290;47.716;9.070;2023-04-30T04:00:28;97022.91;;;12.96;100.00
6514;BME280;3290;47.716;9.070;2023-04-30T04:02:57;97019.59;;;13.12;100.00
6514;BME280;3290;47.716;9.070;2023-04-30T04:05:23;97027.56;;;12.83;100.00
6514;BME280;3290;47.716;9.070;2023-04-30T04:07:48;97023.03;;;12.90;100.00
6514;BME280;3290;47.716;9.070;2023-04-30T04:10:14;97019.72;;;13.17;100.00
6514;BME280;3290;47.716;9.070;2023-04-30T04:12:39;97023.25;;;13.00;100.00
6514;BME280;3290;47.716;9.070;2023-04-30T04:15:05;97027.03;;;13.15;99.86
6514;BME280;3290;47.716;9.070;2023-04-30T04:17:31;97021.81;;;13.26;99.49
6514;BME280;3290;47.716;9.070;2023-04-30T04:19:56;97018.59;;;13.13;99.98
6514;BME280;3290;47.716;9.070;2023-04-30T04:22:22;97026.72;;;13.23;100.00
6514;BME280;3290;47.716;9.070;2023-04-30T04:24:48;97024.53;;;13.20;99.74
6514;BME280;3290;47.716;9.070;2023-04-30T04:27:13;97022.03;;;13.25;99.61
6514;BME280;3290;47.716;9.070;2023-04-30T04:29:38;97025.00;;;13.06;100.00
6514;BME280;3290;47.716;9.070;2023-04-30T04:32:04;97029.19;;;13.07;100.00
6514;BME280;3290;47.716;9.070;2023-04-30T04:34:31;97022.09;;;12.96;100.00
6514;BME280;3290;47.716;9.070;2023-04-30T04:36:56;97029.78;;;13.31;99.71
6514;BME280;3290;47.716;9.070;2023-04-30T04:39:22;97027.75;;;13.11;99.96
6514;BME280;3290;47.716;9.070;2023-04-30T04:41:48;97027.06;;;13.38;98.89
6514;BME280;3290;47.716;9.070;2023-04-30T04:44:13;97030.59;;;13.43;98.70
6514;BME280;3290;47.716;9.070;2023-04-30T04:46:39;97031.97;;;13.34;98.64
6514;BME280;3290;47.716;9.070;2023-04-30T04:49:06;97031.28;;;13.27;99.23
6514;BME280;3290;47.716;9.070;2023-04-30T04:51:32;97026.72;;;13.34;98.81
6514;BME280;3290;47.716;9.070;2023-04-30T04:53:57;97030.06;;;13.53;98.08
6514;BME280;3290;47.716;9.070;2023-04-30T04:56:23;97029.81;;;13.65;97.21
6514;BME280;3290;47.716;9.070;2023-04-30T04:58:48;97035.41;;;13.69;97.59
6514;BME280;3290;47.716;9.070;2023-04-30T05:01:14;97020.75;;;13.50;97.79
6514;BME280;3290;47.716;9.070;2023-04-30T05:03:39;97022.59;;;13.38;98.39
6514;BME280;3290;47.716;9.070;2023-04-30T05:06:05;97026.38;;;13.20;98.95
6514;BME280;3290;47.716;9.070;2023-04-30T05:08:30;97028.00;;;13.55;97.38
6514;BME280;3290;47.716;9.070;2023-04-30T05:10:56;97032.91;;;13.28;98.19
6514;BME280;3290;47.716;9.070;2023-04-30T05:13:21;97036.78;;;13.37;99.00
6514;BME280;3290;47.716;9.070;2023-04-30T05:15:50;97040.91;;;13.56;97.61
6514;BME280;3290;47.716;9.070;2023-04-30T05:18:16;97044.81;;;13.42;98.65
6514;BME280;3290;47.716;9.070;2023-04-30T05:20:41;97040.88;;;13.79;96.28
6514;BME280;3290;47.716;9.070;2023-04-30T05:23:07;97043.19;;;13.64;96.15
6514;BME280;3290;47.716;9.070;2023-04-30T05:25:32;97050.38;;;13.91;95.28
6514;BME280;3290;47.716;9.070;2023-04-30T05:27:58;97052.75;;;13.93;94.83
6514;BME280;3290;47.716;9.070;2023-04-30T05:30:23;97050.25;;;13.98;94.74
6514;BME280;3290;47.716;9.070;2023-04-30T05:32:49;97044.97;;;13.98;94.39
6514;BME280;3290;47.716;9.070;2023-04-30T05:35:17;97045.69;;;13.82;95.05
6514;BME280;3290;47.716;9.070;2023-04-30T05:37:42;97041.81;;;13.73;95.73
6514;BME280;3290;47.716;9.070;2023-04-30T05:40:08;97046.63;;;13.76;95.88
6514;BME280;3290;47.716;9.070;2023-04-30T05:42:34;97036.78;;;13.83;95.41
6514;BME280;3290;47.716;9.070;2023-04-30T05:45:00;97041.09;;;13.89;94.86
6514;BME280;3290;47.716;9.070;2023-04-30T05:47:25;97042.34;;;13.98;93.90
6514;BME280;3290;47.716;9.070;2023-04-30T05:49:51;97040.88;;;13.79;95.43
6514;BME280;3290;47.716;9.070;2023-04-30T05:52:16;97048.31;;;13.93;94.69
6514;BME280;3290;47.716;9.070;2023-04-30T05:54:42;97041.34;;;13.76;94.83
6514;BME280;3290;47.716;9.070;2023-04-30T05:57:07;97036.78;;;13.83;94.66
6514;BME280;3290;47.716;9.070;2023-04-30T05:59:33;97040.09;;;13.90;93.88
6514;BME280;3290;47.716;9.070;2023-04-30T06:01:58;97032.28;;;14.06;93.52
6514;BME280;3290;47.716;9.070;2023-04-30T06:04:24;97034.94;;;13.95;93.50
6514;BME280;3290;47.716;9.070;2023-04-30T06:06:49;97034.44;;;13.98;93.78
6514;BME280;3290;47.716;9.070;2023-04-30T06:09:14;97041.19;;;14.16;93.08
6514;BME280;3290;47.716;9.070;2023-04-30T06:11:40;97035.41;;;14.31;92.22
6514;BME280;3290;47.716;9.070;2023-04-30T06:14:05;97036.28;;;14.47;91.30
6514;BME280;3290;47.716;9.070;2023-04-30T06:16:31;97042.44;;;14.53;91.07
6514;BME280;3290;47.716;9.070;2023-04-30T06:18:56;97036.56;;;14.79;89.22
6514;BME280;3290;47.716;9.070;2023-04-30T06:21:22;97046.41;;;14.67;89.74
6514;BME280;3290;47.716;9.070;2023-04-30T06:23:50;97039.50;;;14.66;88.47
6514;BME280;3290;47.716;9.070;2023-04-30T06:26:17;97042.91;;;14.78;88.01
6514;BME280;3290;47.716;9.070;2023-04-30T06:28:43;97034.34;;;14.43;89.48
6514;BME280;3290;47.716;9.070;2023-04-30T06:31:09;97035.44;;;15.19;86.36
6514;BME280;3290;47.716;9.070;2023-04-30T06:33:34;97036.84;;;14.77;87.50
6514;BME280;3290;47.716;9.070;2023-04-30T06:35:59;97037.84;;;14.76;87.72
6514;BME280;3290;47.716;9.070;2023-04-30T06:38:25;97037.34;;;14.63;87.88
6514;BME280;3290;47.716;9.070;2023-04-30T06:40:50;97037.63;;;14.78;86.84
6514;BME280;3290;47.716;9.070;2023-04-30T06:43:16;97028.09;;;15.21;85.17
6514;BME280;3290;47.716;9.070;2023-04-30T06:45:41;97033.38;;;15.37;84.95
6514;BME280;3290;47.716;9.070;2023-04-30T06:48:07;97026.19;;;15.16;86.66
6514;BME280;3290;47.716;9.070;2023-04-30T06:50:32;97028.75;;;15.44;83.77
6514;BME280;3290;47.716;9.070;2023-04-30T06:52:57;97031.19;;;15.66;83.52
6514;BME280;3290;47.716;9.070;2023-04-30T06:55:23;97023.25;;;15.66;82.56
6514;BME280;3290;47.716;9.070;2023-04-30T06:57:48;97028.50;;;15.29;84.73
6514;BME280;3290;47.716;9.070;2023-04-30T07:00:14;97019.00;;;15.28;84.47
6514;BME280;3290;47.716;9.070;2023-04-30T07:02:40;97030.00;;;15.41;83.28
6514;BME280;3290;47.716;9.070;2023-04-30T07:05:06;97024.28;;;15.28;83.49
6514;BME280;3290;47.716;9.070;2023-04-30T07:07:31;97034.78;;;15.61;83.23
6514;BME280;3290;47.716;9.070;2023-04-30T07:09:56;97031.38;;;15.27;83.29
6514;BME280;3290;47.716;9.070;2023-04-30T07:12:22;97026.22;;;15.54;82.81
6514;BME280;3290;47.716;9.070;2023-04-30T07:14:47;97030.91;;;15.84;82.05
6514;BME280;3290;47.716;9.070;2023-04-30T07:17:13;97033.69;;;15.57;80.93
6514;BME280;3290;47.716;9.070;2023-04-30T07:19:38;97030.91;;;15.84;80.64
6514;BME280;3290;47.716;9.070;2023-04-30T07:22:03;97026.19;;;15.49;82.36
6514;BME280;3290;47.716;9.070;2023-04-30T07:24:29;97023.78;;;16.06;79.88
6514;BME280;3290;47.716;9.070;2023-04-30T07:26:55;97025.28;;;16.40;79.05
6514;BME280;3290;47.716;9.070;2023-04-30T07:29:20;97025.66;;;16.27;78.59
6514;BME280;3290;47.716;9.070;2023-04-30T07:31:46;97029.69;;;16.29;77.61
6514;BME280;3290;47.716;9.070;2023-04-30T07:34:12;97033.47;;;16.17;77.20
6514;BME280;3290;47.716;9.070;2023-04-30T07:36:37;97031.16;;;16.04;77.42
6514;BME280;3290;47.716;9.070;2023-04-30T07:39:03;97032.63;;;15.95;78.20
6514;BME280;3290;47.716;9.070;2023-04-30T07:41:29;97029.91;;;16.28;77.00
6514;BME280;3290;47.716;9.070;2023-04-30T07:43:55;97038.94;;;16.53;77.67
6514;BME280;3290;47.716;9.070;2023-04-30T07:46:20;97035.81;;;16.82;75.93
6514;BME280;3290;47.716;9.070;2023-04-30T07:48:46;97031.53;;;16.81;74.34
6514;BME280;3290;47.716;9.070;2023-04-30T07:51:11;97021.59;;;16.93;73.14
6514;BME280;3290;47.716;9.070;2023-04-30T07:53:36;97014.88;;;17.38;73.13
6514;BME280;3290;47.716;9.070;2023-04-30T07:56:02;97002.09;;;17.66;72.84
6514;BME280;3290;47.716;9.070;2023-04-30T07:58:27;97004.00;;;18.26;69.93
6514;BME280;3290;47.716;9.070;2023-04-30T08:00:53;97005.06;;;17.74;69.47
6514;BME280;3290;47.716;9.070;2023-04-30T08:03:18;97006.16;;;18.44;68.62
6514;BME280;3290;47.716;9.070;2023-04-30T08:05:46;96998.09;;;18.14;68.51
6514;BME280;3290;47.716;9.070;2023-04-30T08:08:11;96999.56;;;18.46;66.91
6514;BME280;3290;47.716;9.070;2023-04-30T08:10:37;97007.00;;;17.99;68.51
6514;BME280;3290;47.716;9.070;2023-04-30T08:13:03;96997.69;;;18.47;66.29
6514;BME280;3290;47.716;9.070;2023-04-30T08:15:29;97002.00;;;18.83;66.48
6514;BME280;3290;47.716;9.070;2023-04-30T08:17:54;96993.00;;;18.88;64.43
6514;BME280;3290;47.716;9.070;2023-04-30T08:20:20;96992.38;;;18.47;63.76
6514;BME280;3290;47.716;9.070;2023-04-30T08:22:47;96997.47;;;18.68;64.51
6514;BME280;3290;47.716;9.070;2023-04-30T08:25:12;97001.47;;;18.71;63.08
6514;BME280;3290;47.716;9.070;2023-04-30T08:27:38;97005.72;;;18.77;63.09
6514;BME280;3290;47.716;9.070;2023-04-30T08:30:05;96998.84;;;19.69;63.46
6514;BME280;3290;47.716;9.070;2023-04-30T08:32:33;96996.19;;;19.69;59.82
6514;BME280;3290;47.716;9.070;2023-04-30T08:34:59;96996.44;;;19.68;60.88
6514;BME280;3290;47.716;9.070;2023-04-30T08:37:24;97000.50;;;19.16;61.67
6514;BME280;3290;47.716;9.070;2023-04-30T08:39:49;97002.06;;;19.62;60.93
6514;BME280;3290;47.716;9.070;2023-04-30T08:42:16;96996.22;;;19.55;59.13
6514;BME280;3290;47.716;9.070;2023-04-30T08:44:43;96996.47;;;19.83;59.05
6514;BME280;3290;47.716;9.070;2023-04-30T08:47:10;96987.69;;;19.58;60.82
6514;BME280;3290;47.716;9.070;2023-04-30T08:49:39;96990.88;;;19.69;59.76
6514;BME280;3290;47.716;9.070;2023-04-30T08:52:05;96984.03;;;19.04;60.58
6514;BME280;3290;47.716;9.070;2023-04-30T08:54:32;96993.56;;;19.55;58.71
6514;BME280;3290;47.716;9.070;2023-04-30T08:56:57;96990.84;;;19.84;56.04
6514;BME280;3290;47.716;9.070;2023-04-30T08:59:22;97002.06;;;19.37;58.38
6514;BME280;3290;47.716;9.070;2023-04-30T09:01:48;96993.25;;;19.76;58.26
6514;BME280;3290;47.716;9.070;2023-04-30T09:04:13;96999.91;;;19.93;56.46
6514;BME280;3290;47.716;9.070;2023-04-30T09:06:39;96996.69;;;19.76;58.44
6514;BME280;3290;47.716;9.070;2023-04-30T09:09:09;96998.63;;;19.41;56.36
6514;BME280;3290;47.716;9.070;2023-04-30T09:11:35;96997.28;;;19.19;57.83
6514;BME280;3290;47.716;9.070;2023-04-30T09:14:01;96997.66;;;18.32;59.54
6514;BME280;3290;47.716;9.070;2023-04-30T09:16:50;96988.78;;;19.07;58.06
6514;BME280;3290;47.716;9.070;2023-04-30T09:19:30;96998.56;;;19.76;56.28
6514;BME280;3290;47.716;9.070;2023-04-30T09:21:55;96995.81;;;20.15;54.53
6514;BME280;3290;47.716;9.070;2023-04-30T09:24:21;96990.38;;;19.43;55.82
6514;BME280;3290;47.716;9.070;2023-04-30T09:26:47;97005.13;;;20.23;56.71
6514;BME280;3290;47.716;9.070;2023-04-30T09:29:13;96995.03;;;20.05;54.39
6514;BME280;3290;47.716;9.070;2023-04-30T09:31:42;96994.63;;;19.14;56.80
6514;BME280;3290;47.716;9.070;2023-04-30T09:34:08;96995.13;;;19.85;55.29
6514;BME280;3290;47.716;9.070;2023-04-30T09:36:33;96989.81;;;19.56;54.56
6514;BME280;3290;47.716;9.070;2023-04-30T09:39:09;96997.28;;;19.44;55.22
6514;BME280;3290;47.716;9.070;2023-04-30T09:41:42;96994.47;;;20.18;54.67
6514;BME280;3290;47.716;9.070;2023-04-30T09:44:28;96983.56;;;20.77;54.82
6514;BME280;3290;47.716;9.070;2023-04-30T09:46:55;96982.94;;;20.90;51.64
6514;BME280;3290;47.716;9.070;2023-04-30T09:49:21;96968.44;;;21.67;49.37
6514;BME280;3290;47.716;9.070;2023-04-30T09:51:58;96975.50;;;20.82;50.78
6514;BME280;3290;47.716;9.070;2023-04-30T09:54:30;96979.94;;;20.48;52.42
6514;BME280;3290;47.716;9.070;2023-04-30T09:56:58;96977.47;;;21.05;52.93
6514;BME280;3290;47.716;9.070;2023-04-30T09:59:28;96986.59;;;19.93;51.69
6514;BME280;3290;47.716;9.070;2023-04-30T10:02:00;96985.53;;;19.89;53.20
6514;BME280;3290;47.716;9.070;2023-04-30T10:04:28;96991.31;;;20.06;53.49
6514;BME280;3290;47.716;9.070;2023-04-30T10:06:56;96985.47;;;20.09;52.34
6514;BME280;3290;47.716;9.070;2023-04-30T10:09:25;96983.25;;;20.31;53.64
6514;BME280;3290;47.716;9.070;2023-04-30T10:11:55;96978.06;;;19.91;53.29
6514;BME280;3290;47.716;9.070;2023-04-30T10:14:23;96983.25;;;20.31;52.55
6514;BME280;3290;47.716;9.070;2023-04-30T10:16:58;96976.28;;;19.57;53.48
6514;BME280;3290;47.716;9.070;2023-04-30T10:19:33;96983.94;;;19.78;54.15
6514;BME280;3290;47.716;9.070;2023-04-30T10:22:00;96970.38;;;19.80;52.77
6514;BME280;3290;47.716;9.070;2023-04-30T10:24:26;96967.66;;;20.57;52.47
6514;BME280;3290;47.716;9.070;2023-04-30T10:26:52;96965.31;;;19.88;52.54
6514;BME280;3290;47.716;9.070;2023-04-30T10:29:17;96959.56;;;20.29;52.46
6514;BME280;3290;47.716;9.070;2023-04-30T10:31:47;96950.78;;;20.29;52.03
6514;BME280;3290;47.716;9.070;2023-04-30T10:34:21;96951.66;;;20.57;52.58
6514;BME280;3290;47.716;9.070;2023-04-30T10:36:55;96949.97;;;20.81;52.05
6514;BME280;3290;47.716;9.070;2023-04-30T10:39:25;96934.53;;;20.78;51.31
6514;BME280;3290;47.716;9.070;2023-04-30T10:42:02;96948.78;;;20.01;53.13
6514;BME280;3290;47.716;9.070;2023-04-30T10:44:35;96945.03;;;20.55;51.56
6514;BME280;3290;47.716;9.070;2023-04-30T10:47:02;96934.81;;;21.10;50.39
6514;BME280;3290;47.716;9.070;2023-04-30T10:49:28;96934.88;;;20.67;51.00
6514;BME280;3290;47.716;9.070;2023-04-30T10:51:58;96934.69;;;20.48;52.22
6514;BME280;3290;47.716;9.070;2023-04-30T10:54:34;96932.78;;;20.11;52.57
6514;BME280;3290;47.716;9.070;2023-04-30T10:57:11;96925.44;;;19.88;52.24
6514;BME280;3290;47.716;9.070;2023-04-30T10:59:41;96930.41;;;20.05;52.57
6514;BME280;3290;47.716;9.070;2023-04-30T11:02:09;96927.88;;;20.28;52.49
6514;BME280;3290;47.716;9.070;2023-04-30T11:05:13;96930.41;;;20.05;53.21
6514;BME280;3290;47.716;9.070;2023-04-30T11:07:50;96924.91;;;19.71;53.74
6514;BME280;3290;47.716;9.070;2023-04-30T11:10:19;96924.75;;;19.33;54.01
6514;BME280;3290;47.716;9.070;2023-04-30T11:12:52;96922.75;;;19.93;53.68
6514;BME280;3290;47.716;9.070;2023-04-30T11:15:35;96923.28;;;19.80;54.51
6514;BME280;3290;47.716;9.070;2023-04-30T11:18:03;96927.91;;;19.40;53.67
6514;BME280;3290;47.716;9.070;2023-04-30T11:20:29;96922.63;;;19.30;54.02
6514;BME280;3290;47.716;9.070;2023-04-30T11:23:13;96923.47;;;19.11;53.43
6514;BME280;3290;47.716;9.070;2023-04-30T11:25:48;96924.16;;;19.56;53.46
6514;BME280;3290;47.716;9.070;2023-04-30T11:28:32;96924.38;;;19.74;53.50
6514;BME280;3290;47.716;9.070;2023-04-30T11:31:00;96919.03;;;19.84;53.34
6514;BME280;3290;47.716;9.070;2023-04-30T11:33:27;96926.00;;;19.66;53.55
6514;BME280;3290;47.716;9.070;2023-04-30T11:35:57;96929.94;;;19.88;51.88
6514;BME280;3290;47.716;9.070;2023-04-30T11:38:35;96925.94;;;19.90;52.04
6514;BME280;3290;47.716;9.070;2023-04-30T11:41:02;96923.28;;;19.75;52.29
6514;BME280;3290;47.716;9.070;2023-04-30T11:43:30;96907.38;;;19.70;52.79
6514;BME280;3290;47.716;9.070;2023-04-30T11:46:25;96908.50;;;19.55;52.67
6514;BME280;3290;47.716;9.070;2023-04-30T11:48:50;96910.66;;;19.43;52.27
6514;BME280;3290;47.716;9.070;2023-04-30T11:51:22;96909.38;;;20.03;51.96
6514;BME280;3290;47.716;9.070;2023-04-30T11:53:51;96898.50;;;20.48;51.02
6514;BME280;3290;47.716;9.070;2023-04-30T11:56:21;96908.59;;;20.08;51.59
6514;BME280;3290;47.716;9.070;2023-04-30T11:58:50;96910.25;;;20.42;51.01
6514;BME280;3290;47.716;9.070;2023-04-30T12:01:16;96905.53;;;20.29;51.10
6514;BME280;3290;47.716;9.070;2023-04-30T12:03:43;96899.28;;;20.48;49.94
6514;BME280;3290;47.716;9.070;2023-04-30T12:06:31;96895.53;;;20.49;50.41
6514;BME280;3290;47.716;9.070;2023-04-30T12:08:57;96899.91;;;20.78;49.43
6514;BME280;3290;47.716;9.070;2023-04-30T12:11:24;96894.63;;;21.29;48.10
6514;BME280;3290;47.716;9.070;2023-04-30T12:13:51;96887.50;;;21.53;47.35
6514;BME280;3290;47.716;9.070;2023-04-30T12:16:17;96873.91;;;22.88;45.80
6514;BME280;3290;47.716;9.070;2023-04-30T12:18:43;96871.06;;;22.29;46.17
6514;BME280;3290;47.716;9.070;2023-04-30T12:21:09;96884.22;;;21.61;46.74
6514;BME280;3290;47.716;9.070;2023-04-30T12:23:35;96884.03;;;21.25;46.93
6514;BME280;3290;47.716;9.070;2023-04-30T12:26:00;96882.91;;;21.30;48.78
6514;BME280;3290;47.716;9.070;2023-04-30T12:28:26;96882.16;;;20.64;47.74
6514;BME280;3290;47.716;9.070;2023-04-30T12:30:52;96884.59;;;21.22;48.60
6514;BME280;3290;47.716;9.070;2023-04-30T12:33:17;96879.69;;;21.05;48.19
6514;BME280;3290;47.716;9.070;2023-04-30T12:35:43;96883.69;;;21.59;47.63
6514;BME280;3290;47.716;9.070;2023-04-30T12:38:09;96864.31;;;21.95;45.88
6514;BME280;3290;47.716;9.070;2023-04-30T12:40:34;96869.97;;;22.12;46.11
6514;BME280;3290;47.716;9.070;2023-04-30T12:43:07;96866.34;;;21.62;45.87
6514;BME280;3290;47.716;9.070;2023-04-30T12:48:07;96857.63;;;21.74;46.50
6514;BME280;3290;47.716;9.070;2023-04-30T12:50:33;96865.91;;;20.98;47.33
6514;BME280;3290;47.716;9.070;2023-04-30T12:53:01;96859.75;;;21.54;46.40
6514;BME280;3290;47.716;9.070;2023-04-30T12:55:26;96856.94;;;21.64;46.43
6514;BME280;3290;47.716;9.070;2023-04-30T12:58:06;96856.94;;;21.64;45.94
6514;BME280;3290;47.716;9.070;2023-04-30T13:00:49;96848.19;;;22.23;46.20
6514;BME280;3290;47.716;9.070;2023-04-30T13:03:18;96837.94;;;22.30;44.86
6514;BME280;3290;47.716;9.070;2023-04-30T13:05:50;96840.03;;;22.83;44.65
6514;BME280;3290;47.716;9.070;2023-04-30T13:08:16;96841.69;;;22.29;45.93
6514;BME280;3290;47.716;9.070;2023-04-30T13:10:42;96856.78;;;22.20;45.32
6514;BME280;3290;47.716;9.070;2023-04-30T13:13:07;96849.06;;;22.37;46.39
6514;BME280;3290;47.716;9.070;2023-04-30T13:15:33;96862.00;;;21.66;47.33
6514;BME280;3290;47.716;9.070;2023-04-30T13:17:59;96858.09;;;21.58;47.98
6514;BME280;3290;47.716;9.070;2023-04-30T13:20:24;96860.44;;;21.36;48.02
6514;BME280;3290;47.716;9.070;2023-04-30T13:22:50;96846.47;;;20.65;47.74
6514;BME280;3290;47.716;9.070;2023-04-30T13:25:16;96852.81;;;21.02;47.83
6514;BME280;3290;47.716;9.070;2023-04-30T13:27:41;96849.19;;;21.16;48.15
6514;BME280;3290;47.716;9.070;2023-04-30T13:30:09;96847.50;;;21.53;47.88
6514;BME280;3290;47.716;9.070;2023-04-30T13:32:34;96849.78;;;21.83;47.77
6514;BME280;3290;47.716;9.070;2023-04-30T13:35:01;96841.28;;;21.99;46.96